createdAt,value
2018-06-14T00:00:06.176Z,100136
2018-06-14T00:01:11.296Z,100133
2018-06-14T00:02:16.743Z,100145
2018-06-14T00:03:22.194Z,100150
2018-06-14T00:04:28.005Z,100142
2018-06-14T00:05:33.437Z,100139
2018-06-14T00:06:38.947Z,100147
2018-06-14T00:07:44.384Z,100142
2018-06-14T00:08:49.817Z,100139
2018-06-14T00:09:54.925Z,100150
2018-06-14T00:11:00.357Z,100147
2018-06-14T00:12:05.533Z,100145
2018-06-14T00:13:11.078Z,100147
2018-06-14T00:14:16.236Z,100142
2018-06-14T00:15:21.392Z,100136
2018-06-14T00:16:41.456Z,100145
2018-06-14T00:17:46.618Z,100145
2018-06-14T00:18:52.026Z,100147
2018-06-14T00:19:57.181Z,100150
2018-06-14T00:21:02.050Z,100139
2018-06-14T00:22:06.722Z,100136
2018-06-14T00:23:11.608Z,100147
2018-06-14T00:24:16.765Z,100150
2018-06-14T00:25:22.174Z,100147
2018-06-14T00:26:27.613Z,100156
2018-06-14T00:27:33.019Z,100150
2018-06-14T00:28:38.185Z,100145
2018-06-14T00:29:43.060Z,100145
2018-06-14T00:30:48.851Z,100139
2018-06-14T00:31:54.006Z,100145
2018-06-14T00:32:59.161Z,100147
2018-06-14T00:34:04.417Z,100139
2018-06-14T00:35:08.745Z,100153
2018-06-14T00:36:14.190Z,100147
2018-06-14T00:37:19.884Z,100147
2018-06-14T00:38:24.752Z,100147
2018-06-14T00:39:30.792Z,100145
2018-06-14T00:40:35.949Z,100145
2018-06-14T00:41:41.092Z,100145
2018-06-14T00:42:46.801Z,100139
2018-06-14T00:43:51.954Z,100133
2018-06-14T00:44:57.386Z,100136
2018-06-14T00:46:03.167Z,100136
2018-06-14T00:47:08.050Z,100142
2018-06-14T00:48:13.194Z,100139
2018-06-14T00:49:18.742Z,100150
2018-06-14T00:50:23.596Z,100147
2018-06-14T00:51:29.202Z,100145
2018-06-14T00:52:34.072Z,100142
2018-06-14T00:53:39.505Z,100139
2018-06-14T00:54:44.214Z,100153
2018-06-14T00:55:48.810Z,100142
2018-06-14T00:56:54.241Z,100136
2018-06-14T00:57:59.744Z,100142
2018-06-14T00:59:05.200Z,100136
2018-06-14T01:00:10.076Z,100145
2018-06-14T01:01:15.209Z,100139
2018-06-14T01:02:20.093Z,100153
2018-06-14T01:03:40.587Z,100133
2018-06-14T01:04:46.021Z,100136
2018-06-14T01:05:50.895Z,100136
2018-06-14T01:06:56.749Z,100142
2018-06-14T01:08:01.610Z,100136
2018-06-14T01:09:06.769Z,100133
2018-06-14T01:10:12.472Z,100150
2018-06-14T01:11:17.654Z,100147
2018-06-14T01:12:22.849Z,100128
2018-06-14T01:13:28.302Z,100133
2018-06-14T01:14:33.493Z,100145
2018-06-14T01:15:38.994Z,100150
2018-06-14T01:16:44.426Z,100139
2018-06-14T01:17:49.861Z,100142
2018-06-14T01:18:54.841Z,100142
2018-06-14T01:19:59.995Z,100153
2018-06-14T01:21:04.308Z,100147
2018-06-14T01:22:09.805Z,100142
2018-06-14T01:23:14.405Z,100147
2018-06-14T01:24:19.542Z,100150
2018-06-14T01:25:25.006Z,100147
2018-06-14T01:26:30.181Z,100147
2018-06-14T01:27:35.021Z,100150
2018-06-14T01:28:39.891Z,100139
2018-06-14T01:29:45.344Z,100147
2018-06-14T01:30:51.031Z,100142
2018-06-14T01:31:56.459Z,100142
2018-06-14T01:33:01.612Z,100136
2018-06-14T01:34:07.025Z,100142
2018-06-14T01:35:12.458Z,100139
2018-06-14T01:36:17.620Z,100136
2018-06-14T01:37:22.858Z,100142
2018-06-14T01:38:28.312Z,100139
2018-06-14T01:39:34.009Z,100142
2018-06-14T01:40:39.177Z,100142
2018-06-14T01:41:43.896Z,100139
2018-06-14T01:42:49.344Z,100156
2018-06-14T01:43:54.509Z,100142
2018-06-14T01:44:59.714Z,100147
2018-06-14T01:46:04.830Z,100150
2018-06-14T01:47:09.441Z,100130
2018-06-14T01:48:14.593Z,100145
2018-06-14T01:49:20.001Z,100133
2018-06-14T01:50:25.151Z,100145
2018-06-14T01:51:30.816Z,100142
2018-06-14T01:52:35.963Z,100142
2018-06-14T01:53:41.117Z,100142
2018-06-14T01:54:46.671Z,100145
2018-06-14T01:55:52.124Z,100130
2018-06-14T01:56:57.573Z,100142
2018-06-14T01:58:03.356Z,100125
2018-06-14T01:59:08.245Z,100122
2018-06-14T02:00:13.678Z,100133
2018-06-14T02:01:18.507Z,100136
2018-06-14T02:02:23.656Z,100139
2018-06-14T02:03:29.351Z,100142
2018-06-14T02:04:34.499Z,100128
2018-06-14T02:05:39.661Z,100139
2018-06-14T02:06:45.346Z,100133
2018-06-14T02:07:50.511Z,100145
2018-06-14T02:08:55.668Z,100145
2018-06-14T02:10:00.937Z,100133
2018-06-14T02:11:06.109Z,100133
2018-06-14T02:12:11.266Z,100130
2018-06-14T02:13:16.950Z,100130
2018-06-14T02:14:21.838Z,100130
2018-06-14T02:15:27.255Z,100133
2018-06-14T02:16:32.417Z,100139
2018-06-14T02:17:37.291Z,100142
2018-06-14T02:18:43.020Z,100147
2018-06-14T02:19:47.898Z,100145
2018-06-14T02:20:52.785Z,100142
2018-06-14T02:21:58.226Z,100150
2018-06-14T02:23:03.381Z,100147
2018-06-14T02:24:07.972Z,100150
2018-06-14T02:25:13.754Z,100145
2018-06-14T02:26:18.933Z,100150
2018-06-14T02:27:24.091Z,100150
2018-06-14T02:28:44.593Z,100153
2018-06-14T02:29:49.751Z,100150
2018-06-14T02:30:55.533Z,100147
2018-06-14T02:32:00.690Z,100153
2018-06-14T02:33:05.574Z,100156
2018-06-14T02:34:10.302Z,100153
2018-06-14T02:35:15.458Z,100150
2018-06-14T02:36:20.891Z,100156
2018-06-14T02:37:40.944Z,100153
2018-06-14T02:38:46.091Z,100147
2018-06-14T02:39:51.495Z,100142
2018-06-14T02:40:56.372Z,100150
2018-06-14T02:42:01.824Z,100150
2018-06-14T02:43:06.763Z,100142
2018-06-14T02:44:12.220Z,100145
2018-06-14T02:45:17.086Z,100147
2018-06-14T02:46:22.235Z,100145
2018-06-14T02:47:27.104Z,100153
2018-06-14T02:48:32.806Z,100153
2018-06-14T02:49:38.259Z,100147
2018-06-14T02:50:43.700Z,100153
2018-06-14T02:51:49.386Z,100150
2018-06-14T02:52:53.975Z,100156
2018-06-14T02:53:59.406Z,100159
2018-06-14T02:55:04.910Z,100147
2018-06-14T02:56:09.491Z,100156
2018-06-14T02:57:14.637Z,100145
2018-06-14T02:58:20.346Z,100150
2018-06-14T02:59:25.799Z,100156
2018-06-14T03:00:31.584Z,100150
2018-06-14T03:01:36.773Z,100159
2018-06-14T03:02:42.207Z,100161
2018-06-14T03:03:47.890Z,100145
2018-06-14T03:04:53.352Z,100164
2018-06-14T03:05:58.217Z,100159
2018-06-14T03:07:04.024Z,100156
2018-06-14T03:08:09.471Z,100159
2018-06-14T03:09:14.328Z,100156
2018-06-14T03:10:19.725Z,100156
2018-06-14T03:11:25.175Z,100150
2018-06-14T03:12:30.308Z,100161
2018-06-14T03:13:35.470Z,100159
2018-06-14T03:14:40.649Z,100147
2018-06-14T03:15:46.347Z,100153
2018-06-14T03:16:51.503Z,100147
2018-06-14T03:17:56.680Z,100139
2018-06-14T03:19:02.193Z,100145
2018-06-14T03:20:07.347Z,100150
2018-06-14T03:21:12.216Z,100156
2018-06-14T03:22:18.000Z,100142
2018-06-14T03:23:23.152Z,100147
2018-06-14T03:24:28.196Z,100139
2018-06-14T03:25:33.064Z,100142
2018-06-14T03:26:38.222Z,100139
2018-06-14T03:27:43.626Z,100145
2018-06-14T03:28:49.068Z,100139
2018-06-14T03:29:54.214Z,100142
2018-06-14T03:31:00.013Z,100139
2018-06-14T03:32:05.157Z,100139
2018-06-14T03:33:09.485Z,100142
2018-06-14T03:34:14.761Z,100142
2018-06-14T03:35:19.922Z,100145
2018-06-14T03:36:40.265Z,100133
2018-06-14T03:37:45.425Z,100139
2018-06-14T03:38:50.570Z,100142
2018-06-14T03:39:56.254Z,100145
2018-06-14T03:41:01.417Z,100142
2018-06-14T03:42:06.281Z,100147
2018-06-14T03:43:11.120Z,100139
2018-06-14T03:44:16.278Z,100139
2018-06-14T03:45:21.740Z,100139
2018-06-14T03:46:27.686Z,100136
2018-06-14T03:47:33.340Z,100139
2018-06-14T03:48:38.766Z,100136
2018-06-14T03:49:43.066Z,100145
2018-06-14T03:50:48.498Z,100139
2018-06-14T03:51:53.382Z,100139
2018-06-14T03:52:58.632Z,100145
2018-06-14T03:54:03.786Z,100145
2018-06-14T03:55:09.060Z,100136
2018-06-14T03:56:14.229Z,100136
2018-06-14T03:57:19.369Z,100136
2018-06-14T03:58:25.334Z,100142
2018-06-14T03:59:30.948Z,100142
2018-06-14T04:00:36.357Z,100145
2018-06-14T04:01:41.843Z,100136
2018-06-14T04:02:46.709Z,100139
2018-06-14T04:03:52.399Z,100139
2018-06-14T04:04:57.870Z,100130
2018-06-14T04:06:02.462Z,100139
2018-06-14T04:07:07.571Z,100136
2018-06-14T04:08:12.732Z,100130
2018-06-14T04:09:17.888Z,100125
2018-06-14T04:10:23.372Z,100142
2018-06-14T04:11:28.636Z,100125
2018-06-14T04:12:33.525Z,100125
2018-06-14T04:13:38.680Z,100128
2018-06-14T04:14:43.277Z,100128
2018-06-14T04:15:48.960Z,100119
2018-06-14T04:16:54.104Z,100128
2018-06-14T04:17:59.274Z,100136
2018-06-14T04:19:04.772Z,100128
2018-06-14T04:20:09.629Z,100125
2018-06-14T04:21:15.068Z,100128
2018-06-14T04:22:20.479Z,100136
2018-06-14T04:23:25.918Z,100139
2018-06-14T04:24:31.913Z,100128
2018-06-14T04:25:37.082Z,100122
2018-06-14T04:26:42.521Z,100125
2018-06-14T04:27:47.931Z,100130
2018-06-14T04:28:53.088Z,100130
2018-06-14T04:29:57.702Z,100128
2018-06-14T04:31:02.955Z,100130
2018-06-14T04:32:07.831Z,100125
2018-06-14T04:33:13.005Z,100122
2018-06-14T04:34:18.700Z,100122
2018-06-14T04:35:24.131Z,100130
2018-06-14T04:36:29.927Z,100130
2018-06-14T04:37:35.374Z,100130
2018-06-14T04:38:40.240Z,100125
2018-06-14T04:39:44.919Z,100128
2018-06-14T04:40:50.360Z,100136
2018-06-14T04:41:55.793Z,100130
2018-06-14T04:43:00.909Z,100128
2018-06-14T04:44:05.778Z,100136
2018-06-14T04:45:10.649Z,100136
2018-06-14T04:46:15.792Z,100133
2018-06-14T04:47:20.975Z,100133
2018-06-14T04:48:26.722Z,100130
2018-06-14T04:49:31.904Z,100130
2018-06-14T04:50:36.771Z,100130
2018-06-14T04:51:41.628Z,100133
2018-06-14T04:52:46.506Z,100133
2018-06-14T04:53:51.949Z,100130
2018-06-14T04:54:57.729Z,100133
2018-06-14T04:56:02.601Z,100130
2018-06-14T04:57:08.059Z,100125
2018-06-14T04:58:13.617Z,100125
2018-06-14T04:59:18.795Z,100119
2018-06-14T05:00:23.389Z,100119
2018-06-14T05:01:28.541Z,100119
2018-06-14T05:02:33.432Z,100116
2018-06-14T05:03:39.264Z,100116
2018-06-14T05:04:44.143Z,100119
2018-06-14T05:05:49.580Z,100125
2018-06-14T05:06:55.103Z,100113
2018-06-14T05:08:00.255Z,100119
2018-06-14T05:09:05.411Z,100116
2018-06-14T05:10:10.371Z,100110
2018-06-14T05:11:15.811Z,100122
2018-06-14T05:12:20.958Z,100119
2018-06-14T05:13:26.994Z,100125
2018-06-14T05:14:32.427Z,100122
2018-06-14T05:15:37.975Z,100125
2018-06-14T05:16:43.144Z,100128
2018-06-14T05:17:48.031Z,100128
2018-06-14T05:18:53.813Z,100125
2018-06-14T05:19:58.968Z,100128
2018-06-14T05:21:04.412Z,100122
2018-06-14T05:22:10.094Z,100128
2018-06-14T05:23:15.244Z,100125
2018-06-14T05:24:20.399Z,100125
2018-06-14T05:25:25.236Z,100122
2018-06-14T05:26:30.402Z,100122
2018-06-14T05:27:36.088Z,100122
2018-06-14T05:28:41.750Z,100101
2018-06-14T05:29:47.341Z,100110
2018-06-14T05:30:52.455Z,100113
2018-06-14T05:31:57.321Z,100104
2018-06-14T05:33:02.482Z,100104
2018-06-14T05:34:07.877Z,100104
2018-06-14T05:35:12.743Z,100093
2018-06-14T05:36:18.197Z,100096
2018-06-14T05:37:23.758Z,100110
2018-06-14T05:38:28.914Z,100104
2018-06-14T05:39:34.593Z,100104
2018-06-14T05:40:39.458Z,100107
2018-06-14T05:41:44.339Z,100107
2018-06-14T05:42:49.986Z,100107
2018-06-14T05:43:55.132Z,100101
2018-06-14T05:45:00.560Z,100107
2018-06-14T05:46:06.067Z,100107
2018-06-14T05:47:11.219Z,100101
2018-06-14T05:48:16.385Z,100116
2018-06-14T05:49:22.279Z,100107
2018-06-14T05:50:27.725Z,100110
2018-06-14T05:51:33.286Z,100101
2018-06-14T05:52:38.453Z,100107
2018-06-14T05:53:43.910Z,100110
2018-06-14T05:54:49.692Z,100113
2018-06-14T05:55:54.845Z,100104
2018-06-14T05:56:59.717Z,100101
2018-06-14T05:58:05.209Z,100107
2018-06-14T05:59:10.362Z,100107
2018-06-14T06:00:15.509Z,100104
2018-06-14T06:01:20.631Z,100101
2018-06-14T06:02:25.786Z,100098
2018-06-14T06:03:31.158Z,100098
2018-06-14T06:04:35.750Z,100107
2018-06-14T06:05:41.180Z,100104
2018-06-14T06:06:46.392Z,100104
2018-06-14T06:07:51.546Z,100096
2018-06-14T06:08:56.692Z,100101
2018-06-14T06:10:01.900Z,100090
2018-06-14T06:11:06.803Z,100101
2018-06-14T06:12:11.971Z,100084
2018-06-14T06:13:17.378Z,100099
2018-06-14T06:14:22.556Z,100098
2018-06-14T06:15:27.375Z,100104
2018-06-14T06:16:32.551Z,100096
2018-06-14T06:17:37.979Z,100096
2018-06-14T06:18:43.482Z,100096
2018-06-14T06:19:49.010Z,100098
2018-06-14T06:20:54.621Z,100096
2018-06-14T06:21:59.524Z,100093
2018-06-14T06:23:04.674Z,100087
2018-06-14T06:24:10.109Z,100087
2018-06-14T06:25:15.940Z,100087
2018-06-14T06:26:21.789Z,100075
2018-06-14T06:27:27.055Z,100081
2018-06-14T06:28:32.500Z,100084
2018-06-14T06:29:37.952Z,100087
2018-06-14T06:30:43.678Z,100081
2018-06-14T06:31:48.546Z,100084
2018-06-14T06:32:53.916Z,100087
2018-06-14T06:33:59.447Z,100084
2018-06-14T06:35:04.599Z,100090
2018-06-14T06:36:09.757Z,100090
2018-06-14T06:37:15.181Z,100087
2018-06-14T06:38:20.365Z,100078
2018-06-14T06:39:26.361Z,100078
2018-06-14T06:40:30.697Z,100075
2018-06-14T06:41:35.564Z,100090
2018-06-14T06:42:41.292Z,100090
2018-06-14T06:43:45.912Z,100087
2018-06-14T06:44:51.060Z,100093
2018-06-14T06:45:56.821Z,100084
2018-06-14T06:47:02.248Z,100087
2018-06-14T06:48:07.178Z,100084
2018-06-14T06:49:12.859Z,100090
2018-06-14T06:50:18.039Z,100075
2018-06-14T06:51:23.472Z,100075
2018-06-14T06:52:28.990Z,100067
2018-06-14T06:53:33.572Z,100065
2018-06-14T06:54:38.681Z,100070
2018-06-14T06:55:43.549Z,100075
2018-06-14T06:56:49.143Z,100075
2018-06-14T06:57:54.658Z,100075
2018-06-14T06:58:59.529Z,100087
2018-06-14T07:00:05.207Z,100078
2018-06-14T07:01:10.064Z,100070
2018-06-14T07:02:15.209Z,100087
2018-06-14T07:03:20.681Z,100078
2018-06-14T07:04:25.939Z,100078
2018-06-14T07:05:31.126Z,100078
2018-06-14T07:06:36.792Z,100067
2018-06-14T07:07:41.945Z,100078
2018-06-14T07:08:46.847Z,100078
2018-06-14T07:09:52.473Z,100078
2018-06-14T07:10:57.953Z,100070
2018-06-14T07:12:02.973Z,100070
2018-06-14T07:13:07.796Z,100065
2018-06-14T07:14:12.955Z,100078
2018-06-14T07:15:18.113Z,100065
2018-06-14T07:16:23.344Z,100070
2018-06-14T07:17:28.543Z,100059
2018-06-14T07:18:34.090Z,100053
2018-06-14T07:19:39.278Z,100064
2018-06-14T07:20:44.422Z,100053
2018-06-14T07:21:50.406Z,100056
2018-06-14T07:22:55.962Z,100067
2018-06-14T07:24:00.838Z,100059
2018-06-14T07:25:05.500Z,100059
2018-06-14T07:26:10.106Z,100059
2018-06-14T07:27:15.541Z,100056
2018-06-14T07:28:21.176Z,100064
2018-06-14T07:29:25.765Z,100053
2018-06-14T07:30:31.321Z,100053
2018-06-14T07:31:36.389Z,100053
2018-06-14T07:32:41.323Z,100053
2018-06-14T07:33:46.733Z,100053
2018-06-14T07:34:51.593Z,100050
2018-06-14T07:35:57.023Z,100059
2018-06-14T07:37:02.133Z,100070
2018-06-14T07:38:07.010Z,100056
2018-06-14T07:39:11.612Z,100056
2018-06-14T07:40:17.210Z,100059
2018-06-14T07:41:22.540Z,100047
2018-06-14T07:42:27.829Z,100062
2018-06-14T07:43:33.213Z,100053
2018-06-14T07:44:38.361Z,100044
2018-06-14T07:45:43.191Z,100047
2018-06-14T07:46:48.338Z,100044
2018-06-14T07:47:53.658Z,100047
2018-06-14T07:48:59.442Z,100047
2018-06-14T07:50:04.875Z,100047
2018-06-14T07:51:09.752Z,100050
2018-06-14T07:52:15.160Z,100047
2018-06-14T07:53:20.032Z,100047
2018-06-14T07:54:25.734Z,100056
2018-06-14T07:55:30.611Z,100047
2018-06-14T07:56:35.764Z,100044
2018-06-14T07:57:40.988Z,100053
2018-06-14T07:58:46.419Z,100050
2018-06-14T07:59:51.875Z,100044
2018-06-14T08:00:57.194Z,100047
2018-06-14T08:02:02.350Z,100044
2018-06-14T08:03:07.220Z,100032
2018-06-14T08:04:12.726Z,100044
2018-06-14T08:05:17.871Z,100047
2018-06-14T08:06:23.531Z,100047
2018-06-14T08:07:29.395Z,100047
2018-06-14T08:08:34.539Z,100044
2018-06-14T08:09:39.757Z,100050
2018-06-14T08:10:45.394Z,100035
2018-06-14T08:11:50.551Z,100047
2018-06-14T08:12:55.441Z,100053
2018-06-14T08:14:00.907Z,100044
2018-06-14T08:15:05.743Z,100035
2018-06-14T08:16:10.680Z,100027
2018-06-14T08:17:15.550Z,100032
2018-06-14T08:18:20.437Z,100047
2018-06-14T08:19:26.386Z,100044
2018-06-14T08:20:31.824Z,100038
2018-06-14T08:21:37.679Z,100041
2018-06-14T08:22:43.111Z,100041
2018-06-14T08:23:48.276Z,100038
2018-06-14T08:24:53.963Z,100030
2018-06-14T08:25:59.123Z,100032
2018-06-14T08:27:04.272Z,100035
2018-06-14T08:28:10.159Z,100035
2018-06-14T08:29:15.040Z,100032
2018-06-14T08:30:19.907Z,100027
2018-06-14T08:31:25.897Z,100035
2018-06-14T08:32:31.060Z,100038
2018-06-14T08:33:36.891Z,100030
2018-06-14T08:34:42.060Z,100030
2018-06-14T08:35:46.926Z,100038
2018-06-14T08:36:52.044Z,100035
2018-06-14T08:37:57.227Z,100032
2018-06-14T08:39:01.911Z,100032
2018-06-14T08:40:06.262Z,100035
2018-06-14T08:41:11.131Z,100035
2018-06-14T08:42:16.303Z,100035
2018-06-14T08:43:21.807Z,100035
2018-06-14T08:44:27.244Z,100024
2018-06-14T08:45:33.232Z,100027
2018-06-14T08:46:38.385Z,100021
2018-06-14T08:47:43.659Z,100032
2018-06-14T08:48:48.878Z,100030
2018-06-14T08:49:54.032Z,100030
2018-06-14T08:50:58.631Z,100021
2018-06-14T08:52:04.136Z,100027
2018-06-14T08:53:09.566Z,100024
2018-06-14T08:54:14.467Z,100018
2018-06-14T08:55:19.699Z,100009
2018-06-14T08:56:24.892Z,100003
2018-06-14T08:57:30.597Z,100018
2018-06-14T08:58:36.050Z,100027
2018-06-14T08:59:40.918Z,100012
2018-06-14T09:00:46.056Z,100021
2018-06-14T09:01:50.660Z,100018
2018-06-14T09:02:55.805Z,100018
2018-06-14T09:04:01.323Z,100021
2018-06-14T09:05:06.203Z,100021
2018-06-14T09:06:11.676Z,100015
2018-06-14T09:07:17.564Z,100018
2018-06-14T09:08:23.007Z,100006
2018-06-14T09:09:28.793Z,100009
2018-06-14T09:10:33.401Z,100006
2018-06-14T09:11:38.994Z,100001
2018-06-14T09:12:44.776Z,100003
2018-06-14T09:13:50.167Z,100009
2018-06-14T09:14:55.318Z,100001
2018-06-14T09:16:01.164Z,100001
2018-06-14T09:17:05.766Z,99998
2018-06-14T09:18:10.679Z,100006
2018-06-14T09:19:16.386Z,99995
2018-06-14T09:20:21.832Z,100001
2018-06-14T09:21:27.816Z,99992
2018-06-14T09:22:33.258Z,99995
2018-06-14T09:23:38.138Z,100009
2018-06-14T09:24:43.255Z,99992
2018-06-14T09:25:47.829Z,99989
2018-06-14T09:26:53.260Z,100003
2018-06-14T09:27:58.764Z,99998
2018-06-14T09:29:03.913Z,100003
2018-06-14T09:30:09.071Z,100003
2018-06-14T09:31:14.780Z,99995
2018-06-14T09:32:20.416Z,99989
2018-06-14T09:33:26.577Z,99986
2018-06-14T09:34:31.440Z,99989
2018-06-14T09:35:36.314Z,99998
2018-06-14T09:36:41.721Z,99989
2018-06-14T09:37:47.170Z,99998
2018-06-14T09:38:52.034Z,99995
2018-06-14T09:39:57.280Z,99992
2018-06-14T09:41:02.924Z,100003
2018-06-14T09:42:07.516Z,100001
2018-06-14T09:43:12.634Z,99989
2018-06-14T09:44:18.068Z,99998
2018-06-14T09:45:23.220Z,99992
2018-06-14T09:46:28.721Z,99995
2018-06-14T09:47:34.167Z,99992
2018-06-14T09:48:39.608Z,99992
2018-06-14T09:49:44.771Z,99998
2018-06-14T09:50:49.651Z,99986
2018-06-14T09:51:55.344Z,99989
2018-06-14T09:53:00.504Z,99989
2018-06-14T09:54:05.988Z,99989
2018-06-14T09:55:11.420Z,99986
2018-06-14T09:56:16.851Z,99986
2018-06-14T09:57:22.284Z,99986
2018-06-14T09:58:28.199Z,99992
2018-06-14T09:59:33.366Z,99977
2018-06-14T10:00:38.777Z,99986
2018-06-14T10:01:43.371Z,99992
2018-06-14T10:02:48.821Z,99986
2018-06-14T10:03:54.225Z,99983
2018-06-14T10:04:59.387Z,99989
2018-06-14T10:06:04.916Z,99983
2018-06-14T10:07:10.552Z,99980
2018-06-14T10:08:16.009Z,99975
2018-06-14T10:09:21.175Z,99972
2018-06-14T10:10:26.569Z,99983
2018-06-14T10:11:32.050Z,99977
2018-06-14T10:12:37.282Z,99975
2018-06-14T10:13:42.720Z,99983
2018-06-14T10:14:48.079Z,99972
2018-06-14T10:15:53.509Z,99983
2018-06-14T10:16:58.651Z,99986
2018-06-14T10:18:03.254Z,99975
2018-06-14T10:19:08.383Z,99969
2018-06-14T10:20:13.586Z,99975
2018-06-14T10:21:18.470Z,99972
2018-06-14T10:22:24.075Z,99975
2018-06-14T10:23:28.664Z,99969
2018-06-14T10:24:34.355Z,99961
2018-06-14T10:25:39.229Z,99964
2018-06-14T10:26:44.114Z,99969
2018-06-14T10:27:49.533Z,99967
2018-06-14T10:28:54.901Z,99961
2018-06-14T10:29:59.992Z,99961
2018-06-14T10:31:05.116Z,99955
2018-06-14T10:32:09.429Z,99964
2018-06-14T10:33:14.304Z,99964
2018-06-14T10:34:19.519Z,99967
2018-06-14T10:35:24.393Z,99964
2018-06-14T10:36:29.973Z,99967
2018-06-14T10:37:35.434Z,99958
2018-06-14T10:38:40.884Z,99961
2018-06-14T10:39:46.440Z,99961
2018-06-14T10:40:51.315Z,99967
2018-06-14T10:41:56.745Z,99961
2018-06-14T10:43:01.962Z,99955
2018-06-14T10:44:06.851Z,99958
2018-06-14T10:45:11.438Z,99952
2018-06-14T10:46:16.935Z,99952
2018-06-14T10:47:22.090Z,99955
2018-06-14T10:48:27.816Z,99961
2018-06-14T10:49:31.842Z,99955
2018-06-14T10:50:36.707Z,99961
2018-06-14T10:51:42.388Z,99955
2018-06-14T10:52:46.980Z,99952
2018-06-14T10:53:51.282Z,99952
2018-06-14T10:54:56.425Z,99955
2018-06-14T10:56:01.304Z,99947
2018-06-14T10:57:05.911Z,99952
2018-06-14T10:58:11.046Z,99947
2018-06-14T10:59:16.190Z,99952
2018-06-14T11:00:21.645Z,99949
2018-06-14T11:01:27.610Z,99944
2018-06-14T11:02:32.766Z,99955
2018-06-14T11:03:38.450Z,99955
2018-06-14T11:04:43.882Z,99944
2018-06-14T11:05:49.313Z,99949
2018-06-14T11:06:55.050Z,99941
2018-06-14T11:08:00.480Z,99938
2018-06-14T11:09:05.068Z,99935
2018-06-14T11:10:10.705Z,99938
2018-06-14T11:11:15.862Z,99938
2018-06-14T11:12:21.306Z,99935
2018-06-14T11:13:27.446Z,99926
2018-06-14T11:14:32.321Z,99926
2018-06-14T11:15:38.000Z,99926
2018-06-14T11:16:43.448Z,99941
2018-06-14T11:17:48.629Z,99926
2018-06-14T11:18:54.467Z,99932
2018-06-14T11:19:59.908Z,99921
2018-06-14T11:21:04.263Z,99935
2018-06-14T11:22:09.416Z,99926
2018-06-14T11:23:15.053Z,99929
2018-06-14T11:24:20.819Z,99926
2018-06-14T11:25:40.586Z,99926
2018-06-14T11:26:46.028Z,99926
2018-06-14T11:27:51.484Z,99918
2018-06-14T11:28:56.920Z,99918
2018-06-14T11:30:02.230Z,99915
2018-06-14T11:31:08.211Z,99921
2018-06-14T11:32:13.656Z,99923
2018-06-14T11:33:18.811Z,99921
2018-06-14T11:34:24.590Z,99921
2018-06-14T11:35:29.505Z,99909
2018-06-14T11:36:34.649Z,99923
2018-06-14T11:37:40.007Z,99929
2018-06-14T11:38:44.594Z,99912
2018-06-14T11:39:49.995Z,99909
2018-06-14T11:40:55.166Z,99900
2018-06-14T11:42:00.037Z,99903
2018-06-14T11:43:05.443Z,99892
2018-06-14T11:44:10.711Z,99897
2018-06-14T11:45:15.859Z,99900
2018-06-14T11:46:20.967Z,99906
2018-06-14T11:47:25.849Z,99912
2018-06-14T11:48:31.935Z,99903
2018-06-14T11:49:36.536Z,99915
2018-06-14T11:50:41.701Z,99903
2018-06-14T11:51:47.109Z,99909
2018-06-14T11:52:52.286Z,99909
2018-06-14T11:53:57.719Z,99895
2018-06-14T11:55:03.232Z,99895
2018-06-14T11:56:08.305Z,99900
2018-06-14T11:57:12.876Z,99892
2018-06-14T11:58:18.307Z,99883
2018-06-14T11:59:22.628Z,99889
2018-06-14T12:00:28.057Z,99892
2018-06-14T12:01:33.245Z,99897
2018-06-14T12:02:38.490Z,99892
2018-06-14T12:03:43.885Z,99897
2018-06-14T12:04:49.063Z,99892
2018-06-14T12:05:53.936Z,99883
2018-06-14T12:06:59.043Z,99880
2018-06-14T12:08:04.211Z,99897
2018-06-14T12:09:09.362Z,99897
2018-06-14T12:10:15.064Z,99886
2018-06-14T12:11:20.165Z,99889
2018-06-14T12:12:25.784Z,99894
2018-06-14T12:13:31.032Z,99883
2018-06-14T12:14:36.625Z,99877
2018-06-14T12:15:42.412Z,99871
2018-06-14T12:16:47.301Z,99871
2018-06-14T12:17:52.171Z,99874
2018-06-14T12:18:57.696Z,99880
2018-06-14T12:20:04.114Z,99874
2018-06-14T12:21:08.434Z,99883
2018-06-14T12:22:14.446Z,99886
2018-06-14T12:23:19.884Z,99874
2018-06-14T12:24:40.039Z,99865
2018-06-14T12:25:44.638Z,99874
2018-06-14T12:26:49.782Z,99877
2018-06-14T12:27:55.504Z,99880
2018-06-14T12:29:00.667Z,99877
2018-06-14T12:30:05.536Z,99868
2018-06-14T12:31:10.940Z,99871
2018-06-14T12:32:16.109Z,99863
2018-06-14T12:33:21.540Z,99863
2018-06-14T12:34:27.528Z,99865
2018-06-14T12:35:32.404Z,99860
2018-06-14T12:36:37.859Z,99860
2018-06-14T12:37:43.658Z,99868
2018-06-14T12:38:48.659Z,99854
2018-06-14T12:39:54.153Z,99854
2018-06-14T12:40:59.584Z,99854
2018-06-14T12:42:04.864Z,99851
2018-06-14T12:43:10.695Z,99848
2018-06-14T12:44:16.516Z,99845
2018-06-14T12:45:21.919Z,99837
2018-06-14T12:46:27.609Z,99840
2018-06-14T12:47:33.051Z,99842
2018-06-14T12:48:38.742Z,99848
2018-06-14T12:49:43.902Z,99845
2018-06-14T12:50:49.350Z,99842
2018-06-14T12:51:54.486Z,99842
2018-06-14T12:52:59.649Z,99845
2018-06-14T12:54:05.118Z,99848
2018-06-14T12:55:10.537Z,99840
2018-06-14T12:56:15.127Z,99845
2018-06-14T12:57:20.562Z,99831
2018-06-14T12:58:25.705Z,99831
2018-06-14T12:59:31.200Z,99837
2018-06-14T13:00:37.034Z,99834
2018-06-14T13:01:41.627Z,99828
2018-06-14T13:02:47.070Z,99823
2018-06-14T13:03:52.752Z,99828
2018-06-14T13:04:57.666Z,99826
2018-06-14T13:06:02.250Z,99828
2018-06-14T13:07:06.809Z,99826
2018-06-14T13:08:11.962Z,99817
2018-06-14T13:09:17.121Z,99826
2018-06-14T13:10:22.846Z,99820
2018-06-14T13:11:27.737Z,99823
2018-06-14T13:12:33.012Z,99817
2018-06-14T13:13:38.451Z,99834
2018-06-14T13:14:43.597Z,99837
2018-06-14T13:15:49.519Z,99834
2018-06-14T13:16:54.675Z,99831
2018-06-14T13:17:58.418Z,99820
2018-06-14T13:19:03.625Z,99828
2018-06-14T13:20:08.529Z,99826
2018-06-14T13:21:13.408Z,99809
2018-06-14T13:22:19.285Z,99823
2018-06-14T13:23:24.434Z,99809
2018-06-14T13:24:29.854Z,99817
2018-06-14T13:25:35.568Z,99826
2018-06-14T13:26:40.615Z,99818
2018-06-14T13:27:46.272Z,99826
2018-06-14T13:28:51.182Z,99823
2018-06-14T13:29:56.635Z,99828
2018-06-14T13:31:02.137Z,99823
2018-06-14T13:32:06.716Z,99826
2018-06-14T13:33:12.178Z,99826
2018-06-14T13:34:17.303Z,99831
2018-06-14T13:35:22.506Z,99826
2018-06-14T13:36:28.000Z,99823
2018-06-14T13:37:32.878Z,99818
2018-06-14T13:38:37.447Z,99809
2018-06-14T13:39:43.009Z,99831
2018-06-14T13:40:48.440Z,99831
2018-06-14T13:41:53.593Z,99817
2018-06-14T13:42:59.096Z,99809